createdAt,value
2019-05-17T00:00:28.101Z,27.00
2019-05-17T00:01:07.517Z,27.00
2019-05-17T00:01:47.251Z,27.00
2019-05-17T00:02:26.850Z,27.00
2019-05-17T00:03:06.815Z,26.90
2019-05-17T00:03:47.094Z,27.00
2019-05-17T00:04:27.064Z,27.00
2019-05-17T00:05:06.910Z,27.00
2019-05-17T00:05:46.687Z,27.00
2019-05-17T00:06:27.538Z,26.90
2019-05-17T00:07:06.727Z,27.00
2019-05-17T00:07:47.432Z,27.00
2019-05-17T00:08:34.333Z,27.00
2019-05-17T00:09:10.075Z,27.00
2019-05-17T00:09:49.143Z,27.00
2019-05-17T00:10:28.787Z,27.00
2019-05-17T00:11:07.459Z,27.00
2019-05-17T00:11:47.336Z,27.00
2019-05-17T00:12:27.264Z,26.90
2019-05-17T00:13:07.613Z,26.90
2019-05-17T00:13:47.059Z,26.90
2019-05-17T00:14:27.114Z,26.90
2019-05-17T00:15:07.097Z,26.90
2019-05-17T00:15:47.405Z,26.90
2019-05-17T00:16:27.471Z,26.90
2019-05-17T00:17:06.685Z,26.90
2019-05-17T00:17:46.917Z,26.90
2019-05-17T00:18:26.672Z,26.90
2019-05-17T00:19:07.463Z,26.90
2019-05-17T00:19:47.271Z,27.00
2019-05-17T00:20:26.883Z,27.00
2019-05-17T00:21:07.706Z,27.00
2019-05-17T00:21:47.554Z,27.00
2019-05-17T00:22:27.601Z,27.00
2019-05-17T00:23:07.268Z,27.00
2019-05-17T00:23:47.268Z,27.00
2019-05-17T00:24:27.031Z,27.00
2019-05-17T00:25:07.333Z,27.00
2019-05-17T00:25:47.412Z,27.00
2019-05-17T00:26:26.987Z,27.00
2019-05-17T00:27:06.690Z,27.00
2019-05-17T00:27:47.377Z,27.00
2019-05-17T00:28:27.165Z,27.00
2019-05-17T00:29:06.820Z,27.00
2019-05-17T00:29:46.495Z,27.00
2019-05-17T00:30:26.547Z,27.00
2019-05-17T00:31:06.645Z,27.00
2019-05-17T00:31:46.505Z,27.00
2019-05-17T00:32:27.421Z,26.90
2019-05-17T00:33:07.746Z,27.00
2019-05-17T00:33:47.290Z,27.00
2019-05-17T00:34:27.474Z,26.90
2019-05-17T00:35:07.269Z,27.00
2019-05-17T00:35:47.246Z,27.00
2019-05-17T00:36:27.107Z,27.00
2019-05-17T00:37:06.992Z,27.00
2019-05-17T00:37:46.563Z,26.90
2019-05-17T00:38:27.406Z,26.90
2019-05-17T00:39:07.471Z,26.90
2019-05-17T00:39:47.494Z,26.90
2019-05-17T00:40:26.981Z,26.90
2019-05-17T00:41:07.048Z,26.90
2019-05-17T00:41:47.170Z,26.90
2019-05-17T00:42:26.722Z,26.90
2019-05-17T00:43:06.673Z,26.90
2019-05-17T00:43:46.383Z,26.90
2019-05-17T00:44:27.181Z,26.90
2019-05-17T00:45:06.726Z,26.90
2019-05-17T00:45:46.815Z,26.80
2019-05-17T00:46:26.762Z,26.80
2019-05-17T00:47:06.606Z,26.80
2019-05-17T00:47:46.810Z,26.80
2019-05-17T00:48:26.579Z,26.80
2019-05-17T00:49:06.509Z,26.90
2019-05-17T00:49:46.516Z,26.90
2019-05-17T00:50:27.552Z,26.80
2019-05-17T00:51:10.109Z,26.90
2019-05-17T00:51:47.784Z,26.90
2019-05-17T00:52:27.672Z,26.90
2019-05-17T00:53:07.314Z,26.90
2019-05-17T00:53:47.275Z,26.90
2019-05-17T00:54:27.042Z,26.90
2019-05-17T00:55:06.766Z,26.90
2019-05-17T00:55:46.655Z,26.90
2019-05-17T00:56:26.624Z,26.90
2019-05-17T00:57:07.495Z,26.90
2019-05-17T00:57:47.467Z,26.90
2019-05-17T00:58:27.786Z,26.90
2019-05-17T00:59:07.427Z,26.90
2019-05-17T00:59:47.705Z,26.90
2019-05-17T01:00:27.901Z,26.90
2019-05-17T01:01:08.413Z,26.90
2019-05-17T01:01:48.150Z,26.90
2019-05-17T01:02:27.624Z,26.90
2019-05-17T01:03:07.241Z,26.90
2019-05-17T01:03:47.704Z,26.90
2019-05-17T01:04:27.673Z,26.90
2019-05-17T01:05:07.062Z,26.90
2019-05-17T01:05:47.364Z,26.90
2019-05-17T01:06:27.513Z,26.90
2019-05-17T01:07:06.951Z,26.90
2019-05-17T01:07:47.248Z,26.90
2019-05-17T01:08:27.300Z,26.90
2019-05-17T01:09:07.814Z,26.90
2019-05-17T01:09:47.382Z,26.90
2019-05-17T01:10:27.237Z,26.90
2019-05-17T01:11:07.092Z,26.90
2019-05-17T01:11:47.362Z,26.90
2019-05-17T01:12:27.300Z,26.90
2019-05-17T01:13:06.785Z,26.90
2019-05-17T01:13:46.770Z,26.90
2019-05-17T01:14:26.553Z,26.90
2019-05-17T01:15:07.319Z,26.90
2019-05-17T01:15:47.352Z,26.90
2019-05-17T01:16:27.214Z,26.90
2019-05-17T01:17:07.158Z,26.90
2019-05-17T01:17:47.500Z,26.90
2019-05-17T01:18:27.303Z,26.90
2019-05-17T01:19:06.847Z,26.90
2019-05-17T01:19:47.173Z,26.90
2019-05-17T01:20:27.694Z,26.90
2019-05-17T01:21:06.563Z,26.90
2019-05-17T01:21:47.487Z,26.90
2019-05-17T01:22:27.225Z,26.90
2019-05-17T01:23:07.754Z,26.90
2019-05-17T01:23:47.129Z,26.90
2019-05-17T01:24:27.445Z,26.90
2019-05-17T01:25:06.457Z,26.90
2019-05-17T01:25:48.022Z,26.90
2019-05-17T01:26:26.811Z,26.90
2019-05-17T01:27:06.583Z,26.90
2019-05-17T01:27:47.431Z,26.90
2019-05-17T01:28:27.159Z,26.90
2019-05-17T01:29:06.701Z,26.90
2019-05-17T01:29:46.648Z,27.00
2019-05-17T01:30:26.621Z,26.90
2019-05-17T01:31:06.646Z,27.00
2019-05-17T01:31:46.941Z,27.00
2019-05-17T01:32:26.753Z,27.00
2019-05-17T01:33:06.572Z,27.00
2019-05-17T01:33:47.079Z,27.00
2019-05-17T01:34:27.252Z,27.00
2019-05-17T01:35:07.285Z,27.00
2019-05-17T01:35:47.416Z,27.00
2019-05-17T01:36:26.994Z,27.00
2019-05-17T01:37:06.468Z,27.00
2019-05-17T01:37:47.489Z,27.00
2019-05-17T01:38:27.039Z,26.90
2019-05-17T01:39:17.081Z,26.90
2019-05-17T01:39:47.363Z,26.90
2019-05-17T01:40:27.131Z,26.90
2019-05-17T01:41:07.000Z,26.90
2019-05-17T01:41:46.875Z,26.90
2019-05-17T01:42:26.590Z,26.90
2019-05-17T01:43:07.571Z,26.90
2019-05-17T01:43:47.490Z,26.90
2019-05-17T01:44:27.294Z,26.90
2019-05-17T01:45:09.694Z,26.90
2019-05-17T01:45:49.271Z,26.90
2019-05-17T01:46:28.912Z,26.90
2019-05-17T01:47:07.596Z,27.00
2019-05-17T01:47:47.605Z,27.00
2019-05-17T01:48:27.194Z,27.00
2019-05-17T01:49:06.991Z,26.90
2019-05-17T01:49:47.070Z,27.00
2019-05-17T01:50:26.715Z,27.00
2019-05-17T01:51:07.528Z,27.00
2019-05-17T01:51:46.688Z,27.00
2019-05-17T01:52:27.329Z,27.00
2019-05-17T01:53:07.502Z,27.00
2019-05-17T01:53:47.158Z,27.00
2019-05-17T01:54:26.877Z,27.00
2019-05-17T01:55:06.676Z,27.00
2019-05-17T01:55:46.566Z,27.00
2019-05-17T01:56:26.228Z,27.00
2019-05-17T01:57:07.144Z,27.00
2019-05-17T01:57:47.585Z,27.00
2019-05-17T01:58:27.330Z,27.00
2019-05-17T01:59:06.854Z,27.00
2019-05-17T01:59:47.428Z,27.00
2019-05-17T02:00:26.940Z,27.00
2019-05-17T02:01:07.357Z,27.00
2019-05-17T02:01:48.100Z,27.00
2019-05-17T02:02:31.702Z,27.00
2019-05-17T02:03:10.819Z,27.00
2019-05-17T02:03:50.735Z,27.00
2019-05-17T02:04:30.862Z,27.00
2019-05-17T02:05:09.726Z,27.00
2019-05-17T02:05:49.553Z,27.00
2019-05-17T02:06:28.843Z,27.00
2019-05-17T02:07:08.106Z,27.10
2019-05-17T02:07:47.794Z,27.10
2019-05-17T02:08:27.284Z,27.10
2019-05-17T02:09:06.638Z,27.10
2019-05-17T02:09:47.667Z,27.10
2019-05-17T02:10:27.640Z,27.10
2019-05-17T02:11:07.017Z,27.10
2019-05-17T02:11:47.083Z,27.10
2019-05-17T02:12:26.888Z,27.10
2019-05-17T02:13:06.663Z,27.10
2019-05-17T02:13:47.004Z,27.10
2019-05-17T02:14:26.756Z,27.10
2019-05-17T02:15:06.926Z,27.10
2019-05-17T02:15:47.200Z,27.10
2019-05-17T02:16:26.785Z,27.10
2019-05-17T02:17:06.834Z,27.10
2019-05-17T02:17:47.043Z,27.20
2019-05-17T02:18:26.783Z,27.20
2019-05-17T02:19:06.765Z,27.20
2019-05-17T02:19:46.648Z,27.20
2019-05-17T02:20:27.535Z,27.20
2019-05-17T02:21:06.751Z,27.20
2019-05-17T02:21:47.849Z,27.20
2019-05-17T02:22:27.297Z,27.20
2019-05-17T02:23:07.298Z,27.10
2019-05-17T02:23:47.270Z,27.20
2019-05-17T02:24:27.542Z,27.20
2019-05-17T02:25:07.264Z,27.20
2019-05-17T02:25:47.234Z,27.20
2019-05-17T02:26:27.639Z,27.10
2019-05-17T02:27:06.432Z,27.20
2019-05-17T02:27:45.971Z,27.10
2019-05-17T02:28:25.875Z,27.20
2019-05-17T02:29:05.086Z,27.10
2019-05-17T02:29:44.383Z,27.20
2019-05-17T02:30:23.579Z,27.20
2019-05-17T02:31:03.463Z,27.20
2019-05-17T02:31:43.898Z,27.20
2019-05-17T02:32:23.579Z,27.20
2019-05-17T02:33:03.795Z,27.20
2019-05-17T02:33:43.483Z,27.20
2019-05-17T02:34:23.346Z,27.20
2019-05-17T02:35:03.302Z,27.20
2019-05-17T02:35:43.384Z,27.20
2019-05-17T02:36:23.060Z,27.10
2019-05-17T02:37:02.931Z,27.20
2019-05-17T02:37:43.490Z,27.20
2019-05-17T02:38:23.132Z,27.20
2019-05-17T02:39:03.617Z,27.20
2019-05-17T02:39:56.601Z,27.20
2019-05-17T02:40:24.911Z,27.20
2019-05-17T02:41:03.848Z,27.20
2019-05-17T02:41:44.131Z,27.20
2019-05-17T02:42:23.470Z,27.20
2019-05-17T02:43:03.085Z,27.20
2019-05-17T02:43:43.482Z,27.20
2019-05-17T02:44:23.689Z,27.20
2019-05-17T02:45:03.578Z,27.20
2019-05-17T02:45:43.497Z,27.20
2019-05-17T02:46:23.372Z,27.20
2019-05-17T02:47:03.150Z,27.20
2019-05-17T02:47:43.950Z,27.10
2019-05-17T02:48:23.672Z,27.20
2019-05-17T02:49:03.324Z,27.20
2019-05-17T02:49:43.448Z,27.20
2019-05-17T02:50:23.340Z,27.20
2019-05-17T02:51:03.422Z,27.20
2019-05-17T02:51:52.706Z,27.20
2019-05-17T02:52:33.057Z,27.20
2019-05-17T02:53:13.226Z,27.20
2019-05-17T02:53:52.654Z,27.20
2019-05-17T02:54:32.970Z,27.20
2019-05-17T02:55:12.794Z,27.20
2019-05-17T02:55:53.986Z,27.20
2019-05-17T02:56:33.533Z,27.20
2019-05-17T02:57:14.117Z,27.20
2019-05-17T02:57:54.209Z,27.20
2019-05-17T02:58:33.780Z,27.20
2019-05-17T02:59:13.487Z,27.20
2019-05-17T02:59:53.654Z,27.20
2019-05-17T03:00:34.158Z,27.20
2019-05-17T03:01:13.180Z,27.30
2019-05-17T03:01:52.844Z,27.30
2019-05-17T03:02:34.160Z,27.30
2019-05-17T03:03:13.447Z,27.20
2019-05-17T03:03:53.487Z,27.30
2019-05-17T03:04:32.920Z,27.30
2019-05-17T03:05:12.837Z,27.30
2019-05-17T03:05:53.605Z,27.20
2019-05-17T03:06:33.204Z,27.30
2019-05-17T03:07:13.497Z,27.30
2019-05-17T03:07:53.519Z,27.30
2019-05-17T03:08:34.159Z,27.30
2019-05-17T03:09:13.752Z,27.30
2019-05-17T03:09:58.313Z,27.30
2019-05-17T03:10:34.239Z,27.30
2019-05-17T03:11:13.818Z,27.30
2019-05-17T03:11:56.957Z,27.30
2019-05-17T03:12:34.153Z,27.30
2019-05-17T03:13:17.031Z,27.30
2019-05-17T03:13:54.651Z,27.30
2019-05-17T03:14:34.870Z,27.40
2019-05-17T03:15:13.942Z,27.40
2019-05-17T03:15:54.067Z,27.40
2019-05-17T03:16:34.024Z,27.40
2019-05-17T03:17:14.117Z,27.40
2019-05-17T03:17:54.316Z,27.40
2019-05-17T03:18:33.907Z,27.40
2019-05-17T03:19:13.238Z,27.40
2019-05-17T03:19:53.138Z,27.40
2019-05-17T03:20:33.260Z,27.40
2019-05-17T03:21:13.529Z,27.40
2019-05-17T03:21:53.607Z,27.40
2019-05-17T03:22:33.459Z,27.50
2019-05-17T03:23:12.768Z,27.50
2019-05-17T03:23:54.013Z,27.40
2019-05-17T03:24:33.367Z,27.40
2019-05-17T03:25:13.648Z,27.50
2019-05-17T03:25:52.960Z,27.50
2019-05-17T03:26:32.935Z,27.40
2019-05-17T03:27:13.477Z,27.50
2019-05-17T03:27:53.624Z,27.50
2019-05-17T03:28:34.007Z,27.50
2019-05-17T03:29:13.700Z,27.50
2019-05-17T03:29:53.872Z,27.50
2019-05-17T03:30:36.455Z,27.50
2019-05-17T03:31:16.613Z,27.50
2019-05-17T03:32:00.371Z,27.50
2019-05-17T03:32:36.823Z,27.50
2019-05-17T03:33:16.881Z,27.50
2019-05-17T03:33:56.682Z,27.50
2019-05-17T03:34:37.318Z,27.50
2019-05-17T03:35:17.901Z,27.50
2019-05-17T03:35:57.635Z,27.50
2019-05-17T03:36:37.185Z,27.50
2019-05-17T03:37:16.677Z,27.50
2019-05-17T03:37:56.271Z,27.50
2019-05-17T03:38:35.821Z,27.50
2019-05-17T03:39:14.698Z,27.50
2019-05-17T03:39:54.535Z,27.50
2019-05-17T03:41:03.404Z,27.60
2019-05-17T03:41:23.531Z,27.50
2019-05-17T03:41:55.605Z,27.60
2019-05-17T03:42:35.140Z,27.60
2019-05-17T03:43:14.300Z,27.60
2019-05-17T03:43:53.760Z,27.60
2019-05-17T03:44:33.520Z,27.60
2019-05-17T03:45:13.640Z,27.60
2019-05-17T03:45:54.325Z,27.60
2019-05-17T03:46:33.647Z,27.60
2019-05-17T03:47:13.280Z,27.60
2019-05-17T03:47:53.396Z,27.60
2019-05-17T03:48:33.538Z,27.60
2019-05-17T03:49:16.111Z,27.60
2019-05-17T03:49:55.802Z,27.60
2019-05-17T03:50:35.365Z,27.60
2019-05-17T03:51:14.423Z,27.60
2019-05-17T03:51:53.814Z,27.60
2019-05-17T03:52:33.461Z,27.60
2019-05-17T03:53:13.135Z,27.60
2019-05-17T03:53:53.242Z,27.60
2019-05-17T03:54:33.454Z,27.70
2019-05-17T03:55:13.308Z,27.70
2019-05-17T03:55:53.930Z,27.60
2019-05-17T03:56:34.030Z,27.60
2019-05-17T03:57:13.799Z,27.60
2019-05-17T03:57:53.548Z,27.70
2019-05-17T03:58:33.517Z,27.70
2019-05-17T03:59:12.865Z,27.70
2019-05-17T03:59:52.842Z,27.70
2019-05-17T04:00:35.439Z,27.70
2019-05-17T04:01:14.089Z,27.70
2019-05-17T04:01:53.190Z,27.70
2019-05-17T04:02:33.027Z,27.70
2019-05-17T04:03:13.561Z,27.70
2019-05-17T04:03:53.193Z,27.70
2019-05-17T04:04:33.124Z,27.70
2019-05-17T04:05:12.681Z,27.70
2019-05-17T04:05:52.952Z,27.70
2019-05-17T04:06:33.164Z,27.70
2019-05-17T04:07:12.810Z,27.70
2019-05-17T04:07:53.649Z,27.70
2019-05-17T04:08:33.864Z,27.70
2019-05-17T04:09:13.719Z,27.70
2019-05-17T04:09:53.843Z,27.60
2019-05-17T04:10:33.783Z,27.70
2019-05-17T04:11:24.306Z,27.70
2019-05-17T04:11:54.626Z,27.70
2019-05-17T04:12:34.215Z,27.70
2019-05-17T04:13:13.395Z,27.70
2019-05-17T04:13:53.809Z,27.70
2019-05-17T04:14:33.734Z,27.70
2019-05-17T04:15:13.803Z,27.70
2019-05-17T04:15:53.688Z,27.70
2019-05-17T04:16:33.929Z,27.80
2019-05-17T04:17:13.485Z,27.70
2019-05-17T04:17:56.456Z,27.80
2019-05-17T04:18:36.088Z,27.80
2019-05-17T04:19:14.995Z,27.80
2019-05-17T04:19:54.406Z,27.80
2019-05-17T04:20:34.356Z,27.80
2019-05-17T04:21:13.361Z,27.80
2019-05-17T04:21:53.625Z,27.80
2019-05-17T04:22:33.772Z,27.90
2019-05-17T04:23:12.955Z,27.90
2019-05-17T04:23:53.843Z,27.90
2019-05-17T04:24:33.984Z,27.90
2019-05-17T04:25:13.612Z,27.90
2019-05-17T04:25:53.627Z,27.90
2019-05-17T04:26:33.295Z,28.00
2019-05-17T04:27:13.584Z,28.00
2019-05-17T04:27:53.681Z,28.00
2019-05-17T04:28:33.756Z,28.00
2019-05-17T04:29:13.515Z,28.00
2019-05-17T04:29:53.809Z,28.00
2019-05-17T04:30:33.224Z,28.00
2019-05-17T04:31:13.351Z,27.90
2019-05-17T04:31:54.508Z,27.90
2019-05-17T04:32:34.445Z,27.90
2019-05-17T04:33:13.036Z,27.90
2019-05-17T04:33:53.623Z,27.90
2019-05-17T04:34:33.864Z,27.90
2019-05-17T04:35:13.851Z,27.90
2019-05-17T04:35:54.225Z,27.90
2019-05-17T04:36:33.588Z,27.90
2019-05-17T04:37:13.060Z,28.00
2019-05-17T04:37:53.272Z,28.00
2019-05-17T04:38:52.572Z,28.00
2019-05-17T04:39:52.275Z,28.00
2019-05-17T04:40:33.553Z,28.00
2019-05-17T04:41:13.313Z,27.90
2019-05-17T04:41:54.794Z,28.00
2019-05-17T04:42:33.077Z,27.90
2019-05-17T04:43:13.544Z,28.00
2019-05-17T04:43:53.520Z,28.00
2019-05-17T04:44:33.086Z,28.10
2019-05-17T04:45:12.973Z,28.10
2019-05-17T04:45:53.557Z,28.10
2019-05-17T04:46:33.239Z,28.00
2019-05-17T04:47:13.359Z,28.00
2019-05-17T04:47:52.940Z,28.00
2019-05-17T04:48:33.130Z,28.00
2019-05-17T04:49:13.778Z,28.00
2019-05-17T04:49:53.829Z,28.00
2019-05-17T04:50:33.737Z,28.00
2019-05-17T04:51:13.411Z,28.00
2019-05-17T04:51:52.677Z,28.00
2019-05-17T04:52:33.600Z,28.00
2019-05-17T04:53:13.601Z,28.00
2019-05-17T04:53:53.097Z,28.00
2019-05-17T04:54:33.485Z,28.00
2019-05-17T04:55:13.781Z,28.00
2019-05-17T04:55:54.037Z,28.00
2019-05-17T04:56:33.801Z,28.00
2019-05-17T04:57:13.532Z,28.00
2019-05-17T04:57:53.263Z,28.00
2019-05-17T04:58:33.490Z,28.00
2019-05-17T04:59:13.909Z,28.00
2019-05-17T04:59:52.911Z,28.00
2019-05-17T05:00:34.028Z,28.00
2019-05-17T05:01:13.659Z,28.00
2019-05-17T05:01:53.705Z,28.00
2019-05-17T05:02:33.412Z,28.00
2019-05-17T05:03:13.023Z,28.00
2019-05-17T05:03:52.507Z,28.10
2019-05-17T05:04:33.843Z,28.10
2019-05-17T05:05:13.640Z,28.10
2019-05-17T05:05:53.750Z,28.10
2019-05-17T05:06:33.538Z,28.10
2019-05-17T05:07:13.688Z,28.10
2019-05-17T05:07:53.504Z,28.10
2019-05-17T05:08:33.393Z,28.10
2019-05-17T05:09:12.916Z,28.10
2019-05-17T05:09:52.677Z,28.20
2019-05-17T05:10:33.327Z,28.20
2019-05-17T05:11:12.958Z,28.20
2019-05-17T05:12:00.384Z,28.20
2019-05-17T05:12:33.543Z,28.20
2019-05-17T05:13:13.499Z,28.20
2019-05-17T05:13:53.106Z,28.20
2019-05-17T05:14:33.178Z,28.20
2019-05-17T05:15:13.173Z,28.20
2019-05-17T05:15:52.319Z,28.20
2019-05-17T05:16:32.120Z,28.20
2019-05-17T05:17:12.785Z,28.20
2019-05-17T05:17:52.691Z,28.20
2019-05-17T05:18:32.719Z,28.20
2019-05-17T05:19:12.993Z,28.20
2019-05-17T05:19:53.023Z,28.20
2019-05-17T05:20:32.647Z,28.20
2019-05-17T05:21:12.301Z,28.20
2019-05-17T05:21:52.023Z,28.20
2019-05-17T05:22:33.012Z,28.20
2019-05-17T05:23:13.110Z,28.20
2019-05-17T05:23:52.388Z,28.20
2019-05-17T05:24:31.654Z,28.20
2019-05-17T05:25:12.388Z,28.20
2019-05-17T05:25:52.239Z,28.30
2019-05-17T05:26:32.146Z,28.30
2019-05-17T05:27:11.708Z,28.30
2019-05-17T05:27:51.678Z,28.30
2019-05-17T05:28:31.724Z,28.30
2019-05-17T05:29:12.742Z,28.30
2019-05-17T05:29:52.498Z,28.30
2019-05-17T05:30:32.019Z,28.30
2019-05-17T05:31:13.340Z,28.30
2019-05-17T05:31:52.329Z,28.30
2019-05-17T05:32:31.867Z,28.30
2019-05-17T05:33:12.937Z,28.30
2019-05-17T05:33:52.206Z,28.30
2019-05-17T05:34:32.285Z,28.20
2019-05-17T05:35:12.350Z,28.20
2019-05-17T05:35:51.665Z,28.20
2019-05-17T05:36:32.778Z,28.20
2019-05-17T05:37:12.586Z,28.20
2019-05-17T05:37:52.571Z,28.20
2019-05-17T05:38:32.188Z,28.20
2019-05-17T05:39:12.275Z,28.20
2019-05-17T05:39:53.940Z,28.20
2019-05-17T05:40:32.376Z,28.20
2019-05-17T05:41:12.297Z,28.20
2019-05-17T05:42:04.884Z,28.20
2019-05-17T05:42:32.982Z,28.20
2019-05-17T05:43:12.939Z,28.20
2019-05-17T05:43:52.593Z,28.20
2019-05-17T05:44:32.403Z,28.20
2019-05-17T05:45:12.090Z,28.20
2019-05-17T05:45:53.472Z,28.20
2019-05-17T05:46:32.482Z,28.20
2019-05-17T05:47:12.107Z,28.20
2019-05-17T05:47:52.145Z,28.20
2019-05-17T05:48:32.601Z,28.30
2019-05-17T05:49:12.787Z,28.30
2019-05-17T05:49:52.130Z,28.20
2019-05-17T05:50:32.332Z,28.20
2019-05-17T05:51:13.730Z,28.30
2019-05-17T05:51:52.592Z,28.30
2019-05-17T05:52:32.479Z,28.20
2019-05-17T05:53:13.008Z,28.30
2019-05-17T05:53:52.328Z,28.30
2019-05-17T05:54:32.126Z,28.30
2019-05-17T05:55:12.251Z,28.30
2019-05-17T05:55:52.259Z,28.30
2019-05-17T05:56:32.627Z,28.30
2019-05-17T05:57:12.704Z,28.30
2019-05-17T05:57:52.230Z,28.30
2019-05-17T05:58:32.227Z,28.30
2019-05-17T05:59:12.260Z,28.30
2019-05-17T05:59:51.813Z,28.30
2019-05-17T06:00:33.029Z,28.30
2019-05-17T06:01:12.848Z,28.30
2019-05-17T06:01:52.516Z,28.30
2019-05-17T06:02:32.347Z,28.30
2019-05-17T06:03:12.359Z,28.30
2019-05-17T06:03:52.002Z,28.30
2019-05-17T06:04:31.951Z,28.30
2019-05-17T06:05:14.711Z,28.30
2019-05-17T06:05:52.505Z,28.30
2019-05-17T06:06:32.358Z,28.30
2019-05-17T06:07:12.844Z,28.30
2019-05-17T06:07:52.213Z,28.40
2019-05-17T06:08:32.319Z,28.30
2019-05-17T06:09:13.475Z,28.40
2019-05-17T06:09:53.014Z,28.40
2019-05-17T06:10:32.599Z,28.40
2019-05-17T06:11:12.458Z,28.40
2019-05-17T06:11:51.908Z,28.40
2019-05-17T06:12:32.272Z,28.40
2019-05-17T06:13:12.972Z,28.50
2019-05-17T06:13:55.547Z,28.40
2019-05-17T06:14:35.544Z,28.40
2019-05-17T06:15:14.772Z,28.40
2019-05-17T06:15:53.769Z,28.40
2019-05-17T06:16:32.901Z,28.40
2019-05-17T06:17:13.119Z,28.50
2019-05-17T06:17:52.621Z,28.50
2019-05-17T06:18:32.087Z,28.50
2019-05-17T06:19:11.741Z,28.50
2019-05-17T06:19:51.679Z,28.50
2019-05-17T06:20:32.395Z,28.50
2019-05-17T06:21:12.221Z,28.50
2019-05-17T06:21:51.998Z,28.50
2019-05-17T06:22:31.826Z,28.50
2019-05-17T06:23:12.311Z,28.50
2019-05-17T06:23:52.134Z,28.60
2019-05-17T06:24:32.000Z,28.60
2019-05-17T06:25:15.164Z,28.60
2019-05-17T06:25:52.472Z,28.60
2019-05-17T06:26:31.966Z,28.60
2019-05-17T06:27:12.347Z,28.60
2019-05-17T06:27:52.103Z,28.60
2019-05-17T06:28:32.009Z,28.60
2019-05-17T06:29:11.783Z,28.60
2019-05-17T06:29:51.471Z,28.60
2019-05-17T06:30:32.361Z,28.60
2019-05-17T06:31:11.803Z,28.60
2019-05-17T06:31:51.868Z,28.60
2019-05-17T06:32:31.906Z,28.60
2019-05-17T06:33:11.917Z,28.60
2019-05-17T06:33:52.450Z,28.60
2019-05-17T06:34:32.762Z,28.60
2019-05-17T06:35:13.348Z,28.60
2019-05-17T06:35:52.606Z,28.60
2019-05-17T06:36:32.818Z,28.60
2019-05-17T06:37:13.337Z,28.60
2019-05-17T06:37:53.606Z,28.60
2019-05-17T06:38:33.254Z,28.60
2019-05-17T06:39:13.415Z,28.60
2019-05-17T06:39:52.686Z,28.60
2019-05-17T06:40:32.462Z,28.60
2019-05-17T06:41:12.606Z,28.60
2019-05-17T06:41:52.205Z,28.60
2019-05-17T06:42:40.427Z,28.60
2019-05-17T06:43:13.340Z,28.60
2019-05-17T06:43:52.527Z,28.60
2019-05-17T06:44:32.497Z,28.70
2019-05-17T06:45:12.575Z,28.60
2019-05-17T06:45:52.289Z,28.70
2019-05-17T06:46:32.470Z,28.70
2019-05-17T06:47:12.190Z,28.70
2019-05-17T06:47:51.883Z,28.70
2019-05-17T06:48:31.839Z,28.70
2019-05-17T06:49:12.365Z,28.70
2019-05-17T06:49:53.509Z,28.70
2019-05-17T06:50:32.753Z,28.70
2019-05-17T06:51:12.852Z,28.70
2019-05-17T06:51:51.684Z,28.70
2019-05-17T06:52:32.640Z,28.70
2019-05-17T06:53:12.388Z,28.70
2019-05-17T06:54:11.993Z,28.70
2019-05-17T06:54:52.453Z,28.70
2019-05-17T06:55:32.377Z,28.70
2019-05-17T06:56:12.799Z,28.70
2019-05-17T06:56:52.720Z,28.70
2019-05-17T06:57:32.623Z,28.70
2019-05-17T06:58:12.156Z,28.70
2019-05-17T06:58:52.015Z,28.70
2019-05-17T06:59:31.647Z,28.70
2019-05-17T07:00:13.944Z,28.70
2019-05-17T07:00:51.107Z,28.70
2019-05-17T07:01:30.773Z,28.70
2019-05-17T07:02:10.485Z,28.80
2019-05-17T07:02:49.892Z,28.70
2019-05-17T07:03:29.634Z,28.70
2019-05-17T07:04:10.168Z,28.70
2019-05-17T07:04:50.820Z,28.70
2019-05-17T07:05:33.070Z,28.80
2019-05-17T07:06:13.043Z,28.80
2019-05-17T07:07:10.853Z,28.80
2019-05-17T07:07:50.579Z,28.80
2019-05-17T07:08:29.623Z,28.80
2019-05-17T07:09:10.075Z,28.80
2019-05-17T07:09:49.802Z,28.80
2019-05-17T07:10:30.187Z,28.80
2019-05-17T07:11:09.829Z,28.80
2019-05-17T07:11:51.259Z,28.80
2019-05-17T07:12:30.738Z,28.80
2019-05-17T07:13:10.873Z,28.80
2019-05-17T07:13:50.523Z,28.80
2019-05-17T07:14:29.703Z,28.80
2019-05-17T07:15:10.759Z,28.80
2019-05-17T07:15:51.069Z,28.80
2019-05-17T07:16:30.228Z,28.80
2019-05-17T07:17:09.876Z,28.80
2019-05-17T07:17:50.458Z,28.80
2019-05-17T07:18:30.307Z,28.80
2019-05-17T07:19:10.291Z,28.80
2019-05-17T07:19:50.745Z,28.80
2019-05-17T07:20:30.027Z,28.80
2019-05-17T07:21:10.146Z,28.80
2019-05-17T07:21:49.419Z,28.80
2019-05-17T07:22:29.644Z,28.80
2019-05-17T07:23:10.710Z,28.80
2019-05-17T07:23:50.339Z,28.80
2019-05-17T07:24:30.031Z,28.80
2019-05-17T07:25:10.790Z,28.80
2019-05-17T07:25:50.584Z,28.80
2019-05-17T07:26:30.329Z,28.90
2019-05-17T07:27:10.083Z,28.90
2019-05-17T07:27:50.418Z,28.90
2019-05-17T07:28:30.248Z,28.90
2019-05-17T07:29:10.252Z,28.90
2019-05-17T07:29:49.765Z,28.90
2019-05-17T07:30:30.565Z,28.90
2019-05-17T07:31:10.136Z,28.90
2019-05-17T07:31:49.922Z,28.90
2019-05-17T07:32:29.844Z,28.90
2019-05-17T07:33:10.121Z,28.90
2019-05-17T07:33:50.461Z,28.90
2019-05-17T07:34:30.896Z,28.90
2019-05-17T07:35:11.326Z,28.90
2019-05-17T07:35:50.453Z,28.90
2019-05-17T07:36:30.633Z,28.90
2019-05-17T07:37:10.643Z,29.00
2019-05-17T07:37:50.252Z,28.90
2019-05-17T07:38:30.220Z,29.00
2019-05-17T07:39:10.790Z,29.00
2019-05-17T07:40:00.412Z,29.00
2019-05-17T07:40:31.154Z,29.00
2019-05-17T07:41:10.443Z,29.00
2019-05-17T07:41:49.526Z,29.00
2019-05-17T07:42:29.862Z,29.00
2019-05-17T07:43:14.397Z,29.00
2019-05-17T07:43:50.475Z,29.00
2019-05-17T07:44:29.829Z,29.00
2019-05-17T07:45:10.351Z,29.00
2019-05-17T07:45:49.735Z,29.00
2019-05-17T07:46:29.509Z,29.00
2019-05-17T07:47:09.710Z,29.00
2019-05-17T07:47:49.585Z,29.00
2019-05-17T07:48:31.071Z,29.00
2019-05-17T07:49:10.879Z,29.00
2019-05-17T07:49:50.827Z,29.00
2019-05-17T07:50:29.943Z,29.00
2019-05-17T07:51:10.113Z,29.00
2019-05-17T07:51:50.308Z,29.00
2019-05-17T07:52:29.946Z,29.00
2019-05-17T07:53:10.250Z,29.10
2019-05-17T07:53:50.162Z,29.10
2019-05-17T07:54:30.311Z,29.10
2019-05-17T07:55:10.992Z,29.10
2019-05-17T07:55:50.786Z,29.10
2019-05-17T07:56:30.539Z,29.10
2019-05-17T07:57:10.780Z,29.10
2019-05-17T07:57:50.287Z,29.10
2019-05-17T07:58:29.887Z,29.00
2019-05-17T07:59:09.506Z,29.10
2019-05-17T07:59:50.761Z,29.10
2019-05-17T08:00:30.537Z,29.10
2019-05-17T08:01:10.231Z,29.10
2019-05-17T08:01:50.343Z,29.10
2019-05-17T08:02:30.630Z,29.10
2019-05-17T08:03:13.008Z,29.10
2019-05-17T08:03:50.751Z,29.10
2019-05-17T08:04:29.907Z,29.10
2019-05-17T08:05:10.015Z,29.10
2019-05-17T08:05:50.549Z,29.10
2019-05-17T08:06:30.635Z,29.10
2019-05-17T08:07:11.281Z,29.10
2019-05-17T08:07:50.819Z,29.10
2019-05-17T08:08:31.154Z,29.10
2019-05-17T08:09:13.924Z,29.10
2019-05-17T08:09:51.378Z,29.10
2019-05-17T08:10:30.351Z,29.10
2019-05-17T08:11:10.611Z,29.10
2019-05-17T08:11:50.306Z,29.10
2019-05-17T08:12:30.538Z,29.10
2019-05-17T08:13:25.131Z,29.10
2019-05-17T08:13:50.651Z,29.10
2019-05-17T08:14:33.391Z,29.10
2019-05-17T08:15:11.200Z,29.20
2019-05-17T08:15:50.426Z,29.20
2019-05-17T08:16:30.423Z,29.20
2019-05-17T08:17:10.344Z,29.20
2019-05-17T08:17:50.262Z,29.20
2019-05-17T08:18:29.722Z,29.20
2019-05-17T08:19:09.738Z,29.20
2019-05-17T08:19:49.901Z,29.20
2019-05-17T08:20:29.964Z,29.20
2019-05-17T08:21:10.341Z,29.20
2019-05-17T08:21:50.188Z,29.20
2019-05-17T08:22:29.505Z,29.20
2019-05-17T08:23:10.479Z,29.20
2019-05-17T08:23:50.547Z,29.20
2019-05-17T08:24:30.302Z,29.20
2019-05-17T08:25:10.149Z,29.20
2019-05-17T08:25:55.664Z,29.20
2019-05-17T08:26:31.072Z,29.20
2019-05-17T08:27:10.664Z,29.20
2019-05-17T08:27:50.455Z,29.20
2019-05-17T08:28:31.188Z,29.20
2019-05-17T08:29:10.682Z,29.20
2019-05-17T08:29:50.098Z,29.20
2019-05-17T08:30:30.276Z,29.20
2019-05-17T08:31:10.761Z,29.20
2019-05-17T08:31:50.074Z,29.20
2019-05-17T08:32:31.360Z,29.20
2019-05-17T08:33:10.782Z,29.20
2019-05-17T08:33:53.298Z,29.20
2019-05-17T08:34:32.465Z,29.20
2019-05-17T08:35:11.831Z,29.20
2019-05-17T08:35:51.251Z,29.20
2019-05-17T08:36:30.141Z,29.20